Erie, Minnesota
Current Conditions -  °F | °C
As of 9:55 PM on Wednesday 22 Oct 2014 (Local Time) from KTVF Reporting Station
Overcast Overcast  
Wind Chill: 54°   Ceiling: 4900
Heat Index: 54°   Visibility: 10mi
Dew Point: 52°   Wind: 9mph
Humidity: 94%   Direction: 190°S
Pressure: 29.87"   Gusts: NA
Location:  48.0638°N, 95.6851°W
Report Text: KTVF 230255Z AUTO 19008KT 10SM SCT006 BKN049 OVC085 12/11 A2987 RMK AO1 60003 52010
Loading
Personal Weather Stations






























Interactive Weather Map New forecast layout! Learn more

10-Day Weather Forecast

Advertisements
Track Severe Weather on mobile